Portada
METAR-TAF:

METAR-TAF

Aeroports :

Gibraltar, Gibraltar

latitud: 36-09N, longitud: 005-21W, altitud: 5 m

Observació

L'informe es va fer fa 1 hora i 9 minuts, a les 21:50 UTC
Vent 2 kt del Nord-Oest
Temperatura 14°C
Humitat 82%
Pressió 1016 hPa
Visibilitat 10 km o més

METAR: LXGB 192150Z AUTO 32002KT 9999 // BKN110/// 14/11 Q1016

Hora: 23:59 (22:59 UTC)

Pronòstic

L'informe es va fer fa 6 hores i 42 minuts, a les 16:17 UTC
Pronòstic vàlid del 19 a les 18 UTC al 19 a les 23 UTC
Vent 7 kt del Oest
Visibilitat 10 km o més
Escasses núvols a una alçada de 2500 ft
Probabilitat 30% :
Temporalment
l' 19 a les 18 UTC al 19 a les 23 UTC
Núvols disperses a una alçada de 2400 ft

TAF: LXGB 191617Z 1918/1923 26007KT 9999 FEW025 PROB30 TEMPO 1918/1923 SCT024

Observacions i pronòstics meteorològics de més de 4000 aeroports (METAR i TAF).

Les estacions disponibles són els punts grocs i vermells al mapa.

Posi el ratolí al punt desitjat per veure el nom de l'estació.

Feu clic per veure les observacions i els pronòstics meteorològics.

Per canviar el mapa: feu clic els botons verds amb una creu de color negre per apropar; al botó verd amb un guió per allunyar la imatge; o en les fletxes verdes per a mapes adjacents.


METAR-TAF: